Time;durP1;ratioP1;P1;durP2;ratioP2;P2;SDS_P1;SDS_P2;PMS_P1;PMS_P2;Temp;Humidity;BMP_temperature;BMP_pressure;BME280_temperature;BME280_humidity;BME280_pressure;Samples;Min_cycle;Max_cycle;Signal;HPM_P1;HPM_P2
2023/03/08 00:00:15;;;;;;;;;;;;;;;-144.98;100.00;62585.19;4942881;29;19959;-66
2023/03/08 00:03:19;;;;;;;;;;;;;;;-144.98;100.00;62585.19;4943085;29;20413;-67
2023/03/08 00:06:22;;;;;;;;;;;;;;;-144.98;100.00;62585.19;4943590;29;19926;-67
2023/03/08 00:09:25;;;;;;;;;;;;;;;-144.98;100.00;62585.19;4946527;29;19926;-66
2023/03/08 00:12:28;;;;;;;;;;;;;;;-144.98;100.00;62585.19;4941606;29;19929;-66
2023/03/08 00:15:31;;;;;;;;;;;;;;;-144.98;100.00;62585.19;4942030;29;20434;-64
2023/03/08 00:18:35;;;;;;;;;;;;;;;-144.98;100.00;62585.19;4942467;29;20450;-66
2023/03/08 00:21:38;;;;;;;;;;;;;;;-144.98;100.00;62585.19;4942800;29;20124;-65
2023/03/08 00:24:42;;;;;;;;;;;;;;;-144.98;100.00;62585.19;4943901;29;20010;-66
2023/03/08 00:27:45;;;;;;;;;;;;;;;-144.98;100.00;62585.19;4944042;29;19961;-67
2023/03/08 00:30:59;;;;;;;;;;;;;;;-144.98;100.00;62585.19;4941219;29;19949;-67
2023/03/08 00:34:02;;;;;;;;;;;;;;;-144.98;100.00;62585.19;4943296;29;19947;-67
2023/03/08 00:37:05;;;;;;;;;;;;;;;-144.98;100.00;62585.19;4931742;29;19992;-67
2023/03/08 00:40:08;;;;;;;;;;;;;;;-144.98;100.00;62585.19;4934100;29;19928;-67
2023/03/08 00:43:11;;;;;;;;;;;;;;;-144.98;100.00;62585.19;4941620;29;19929;-67
2023/03/08 00:46:15;;;;;;;;;;;;;;;-144.98;100.00;62585.19;4941657;29;19977;-65
2023/03/08 00:49:18;;;;;;;;;;;;;;;-144.98;100.00;62585.19;4942541;29;19930;-65
2023/03/08 00:52:21;;;;;;;;;;;;;;;-144.98;100.00;62585.19;4942593;29;20409;-66
2023/03/08 00:55:25;;;;;;;;;;;;;;;-144.98;100.00;62585.19;4936725;29;20298;-65
2023/03/08 00:58:29;;;;;;;;;;;;;;;-144.98;100.00;62585.19;4940966;29;20417;-67
2023/03/08 01:01:32;;;;;;;;;;;;;;;-144.98;100.00;62585.19;4938117;29;19961;-66
2023/03/08 01:04:35;;;;;;;;;;;;;;;-144.98;100.00;62585.19;4941683;29;20009;-67
2023/03/08 01:07:38;;;;;;;;;;;;;;;-144.98;100.00;62585.19;4933315;29;19949;-67
2023/03/08 01:10:50;;;;;;;;;;;;;;;-144.98;100.00;62585.19;4933352;29;19934;-67
2023/03/08 01:13:53;;;;;;;;;;;;;;;-144.98;100.00;62585.19;4939447;29;20118;-66
2023/03/08 01:16:56;;;;;;;;;;;;;;;-144.98;100.00;62585.19;4935415;29;19929;-68
2023/03/08 01:20:00;;;;;;;;;;;;;;;-144.98;100.00;62585.19;4939036;29;19934;-67
2023/03/08 01:23:03;;;;;;;;;;;;;;;-144.98;100.00;62585.19;4927694;29;20366;-66
2023/03/08 01:26:10;;;;;;;;;;;;;;;-144.98;100.00;62585.19;4939893;29;19929;-65
2023/03/08 01:29:13;;;;;;;;;;;;;;;-144.98;100.00;62585.19;4940758;29;20215;-65
2023/03/08 01:32:15;;;;;;;;;;;;;;;-144.98;100.00;62585.19;4938072;29;19925;-65
2023/03/08 01:35:19;;;;;;;;;;;;;;;-144.98;100.00;62585.19;4929655;29;20397;-66
2023/03/08 01:38:23;;;;;;;;;;;;;;;-144.98;100.00;62585.19;4933268;29;19973;-66
2023/03/08 01:41:28;;;;;;;;;;;;;;;-144.98;100.00;62585.19;4939867;29;19925;-66
2023/03/08 01:44:47;;;;;;;;;;;;;;;-144.98;100.00;62585.19;4940433;29;20403;-66
2023/03/08 01:47:50;;;;;;;;;;;;;;;-144.98;100.00;62585.19;4922375;29;19946;-66
2023/03/08 01:51:01;;;;;;;;;;;;;;;-144.98;100.00;62585.19;4924378;29;20418;-66
2023/03/08 01:54:20;;;;;;;;;;;;;;;-144.98;100.00;62585.19;4930036;29;20390;-66
2023/03/08 01:57:59;;;;;;;;;;;;;;;-144.98;100.00;62585.19;4933529;29;20401;-66
2023/03/08 02:01:02;;;;;;;;;;;;;;;-144.98;100.00;62585.19;4901744;29;20391;-66
2023/03/08 02:04:08;;;;;;;;;;;;;;;-144.98;100.00;62585.19;4923458;29;20006;-66
2023/03/08 02:07:11;;;;;;;;;;;;;;;-144.98;100.00;62585.19;4928598;29;19941;-66
2023/03/08 02:10:16;;;;;;;;;;;;;;;-144.98;100.00;62585.19;4929608;29;20450;-66
2023/03/08 02:13:21;;;;;;;;;;;;;;;-144.98;100.00;62585.19;4929719;29;21625;-66
2023/03/08 02:16:25;;;;;;;;;;;;;;;-144.98;100.00;62585.19;4942243;29;20450;-66
2023/03/08 02:19:32;;;;;;;;;;;;;;;-144.98;100.00;62585.19;4930411;29;20021;-66
2023/03/08 02:22:45;;;;;;;;;;;;;;;-144.98;100.00;62585.19;4936006;28;19989;-66
2023/03/08 02:25:50;;;;;;;;;;;;;;;-144.98;100.00;62585.19;4936294;29;19930;-66
2023/03/08 02:28:54;;;;;;;;;;;;;;;-144.98;100.00;62585.19;4944075;29;19965;-66
2023/03/08 02:31:57;;;;;;;;;;;;;;;-144.98;100.00;62585.19;4944508;29;19934;-66
2023/03/08 02:35:01;;;;;;;;;;;;;;;-144.98;100.00;62585.19;4935574;29;20010;-66
2023/03/08 02:38:04;;;;;;;;;;;;;;;-144.98;100.00;62585.19;4945570;29;19951;-66
2023/03/08 02:41:07;;;;;;;;;;;;;;;-144.98;100.00;62585.19;4943081;29;19976;-66
2023/03/08 02:44:13;;;;;;;;;;;;;;;-144.98;100.00;62585.19;4944063;29;19974;-66
2023/03/08 02:47:16;;;;;;;;;;;;;;;-144.98;100.00;62585.19;4943752;29;19929;-66
2023/03/08 02:50:19;;;;;;;;;;;;;;;-144.98;100.00;62585.19;4926616;29;19962;-66
2023/03/08 02:53:23;;;;;;;;;;;;;;;-144.98;100.00;62585.19;4948227;29;20425;-66
2023/03/08 02:56:26;;;;;;;;;;;;;;;-144.98;100.00;62585.19;4945822;29;19950;-66
2023/03/08 02:59:30;;;;;;;;;;;;;;;-144.98;100.00;62585.19;4942843;29;19977;-66
2023/03/08 03:02:34;;;;;;;;;;;;;;;-144.98;100.00;62585.19;4933878;29;19926;-66
2023/03/08 03:05:41;;;;;;;;;;;;;;;-144.98;100.00;62585.19;4943996;29;20350;-66
2023/03/08 03:08:45;;;;;;;;;;;;;;;-144.98;100.00;62585.19;4933341;29;20278;-66
2023/03/08 03:11:49;;;;;;;;;;;;;;;-144.98;100.00;62585.19;4932008;29;19973;-66
2023/03/08 03:14:52;;;;;;;;;;;;;;;-144.98;100.00;62585.19;4943172;29;20342;-66
2023/03/08 03:17:56;;;;;;;;;;;;;;;-144.98;100.00;62585.19;4943445;29;20083;-66
2023/03/08 03:21:03;;;;;;;;;;;;;;;-144.98;100.00;62585.19;4934407;29;19969;-66
2023/03/08 03:24:06;;;;;;;;;;;;;;;-144.98;100.00;62585.19;4947358;28;19925;-66
2023/03/08 03:27:18;;;;;;;;;;;;;;;-144.98;100.00;62585.19;4946031;29;20395;-66
2023/03/08 03:30:22;;;;;;;;;;;;;;;-144.98;100.00;62585.19;4944103;28;19933;-66
2023/03/08 03:33:50;;;;;;;;;;;;;;;-144.98;100.00;62585.19;4937573;29;19926;-66
2023/03/08 03:36:56;;;;;;;;;;;;;;;-144.98;100.00;62585.19;4930517;29;19925;-66
2023/03/08 03:40:00;;;;;;;;;;;;;;;-144.98;100.00;62585.19;4936060;29;19937;-65
2023/03/08 03:43:04;;;;;;;;;;;;;;;-144.98;100.00;62585.19;4932667;29;19925;-65
2023/03/08 03:46:10;;;;;;;;;;;;;;;-144.98;100.00;62585.19;4942313;29;19978;-65
2023/03/08 03:49:13;;;;;;;;;;;;;;;-144.98;100.00;62585.19;4937287;29;20398;-65
2023/03/08 03:52:19;;;;;;;;;;;;;;;-144.98;100.00;62585.19;4935906;29;19968;-65
2023/03/08 03:55:31;;;;;;;;;;;;;;;-144.98;100.00;62585.19;4923026;29;19925;-65
2023/03/08 03:58:36;;;;;;;;;;;;;;;-144.98;100.00;62585.19;4915238;29;19930;-65
2023/03/08 04:01:40;;;;;;;;;;;;;;;-144.98;100.00;62585.19;4918281;29;19961;-65
2023/03/08 04:04:58;;;;;;;;;;;;;;;-144.98;100.00;62585.19;4936280;29;20390;-65
2023/03/08 04:08:08;;;;;;;;;;;;;;;-144.98;100.00;62585.19;4932341;29;19926;-65
2023/03/08 04:11:17;;;;;;;;;;;;;;;-144.98;100.00;62585.19;4927817;29;19965;-65
2023/03/08 04:14:20;;;;;;;;;;;;;;;-144.98;100.00;62585.19;4930793;29;19974;-65
2023/03/08 04:17:25;;;;;;;;;;;;;;;-144.98;100.00;62585.19;4942686;29;19977;-65
2023/03/08 04:20:30;;;;;;;;;;;;;;;-144.98;100.00;62585.19;4952360;29;19925;-65
2023/03/08 04:23:36;;;;;;;;;;;;;;;-144.98;100.00;62585.19;4925601;29;19941;-66
2023/03/08 04:26:41;;;;;;;;;;;;;;;-144.98;100.00;62585.19;4925665;29;19925;-66
2023/03/08 04:29:44;;;;;;;;;;;;;;;-144.98;100.00;62585.19;4921888;29;20069;-66
2023/03/08 04:32:48;;;;;;;;;;;;;;;-144.98;100.00;62585.19;4936949;29;19926;-66
2023/03/08 04:35:52;;;;;;;;;;;;;;;-144.98;100.00;62585.19;4924892;29;20302;-65
2023/03/08 04:38:58;;;;;;;;;;;;;;;-144.98;100.00;62585.19;4924711;29;19929;-65
2023/03/08 04:42:01;;;;;;;;;;;;;;;-144.98;100.00;62585.19;4936224;29;19961;-65
2023/03/08 04:45:07;;;;;;;;;;;;;;;-144.98;100.00;62585.19;4925097;29;19967;-65
2023/03/08 04:48:10;;;;;;;;;;;;;;;-144.98;100.00;62585.19;4924687;29;19954;-69
2023/03/08 04:51:15;;;;;;;;;;;;;;;-144.98;100.00;62585.19;4924768;29;20409;-66
2023/03/08 04:54:18;;;;;;;;;;;;;;;-144.98;100.00;62585.19;4924083;29;19941;-66
2023/03/08 04:57:27;;;;;;;;;;;;;;;-144.98;100.00;62585.19;4923859;29;20001;-66
2023/03/08 05:00:34;;;;;;;;;;;;;;;-144.98;100.00;62585.19;4924780;29;19965;-66
2023/03/08 05:03:38;;;;;;;;;;;;;;;-144.98;100.00;62585.19;4920676;29;20045;-66
2023/03/08 05:06:42;;;;;;;;;;;;;;;-144.98;100.00;62585.19;4924527;29;19982;-66
2023/03/08 05:09:49;;;;;;;;;;;;;;;-144.98;100.00;62585.19;4924639;29;20068;-65
2023/03/08 05:12:52;;;;;;;;;;;;;;;-144.98;100.00;62585.19;4924586;29;19968;-65
2023/03/08 05:15:56;;;;;;;;;;;;;;;-144.98;100.00;62585.19;4924906;29;19925;-67
2023/03/08 05:18:59;;;;;;;;;;;;;;;-144.98;100.00;62585.19;4936214;29;19930;-66
2023/03/08 05:22:08;;;;;;;;;;;;;;;-144.98;100.00;62585.19;4935957;29;19926;-67
2023/03/08 05:25:16;;;;;;;;;;;;;;;-144.98;100.00;62585.19;4924476;29;19966;-66
2023/03/08 05:28:20;;;;;;;;;;;;;;;-144.98;100.00;62585.19;4924369;29;20448;-66
2023/03/08 05:31:24;;;;;;;;;;;;;;;-144.98;100.00;62585.19;4943230;29;19984;-66
2023/03/08 05:34:29;;;;;;;;;;;;;;;-144.98;100.00;62585.19;4938397;29;20377;-65
2023/03/08 05:37:33;;;;;;;;;;;;;;;-144.98;100.00;62585.19;4942973;29;19938;-73
2023/03/08 05:40:40;;;;;;;;;;;;;;;-144.98;100.00;62585.19;4943216;29;19989;-68
2023/03/08 05:44:08;;;;;;;;;;;;;;;-144.98;100.00;62585.19;4954477;29;19950;-66
2023/03/08 05:47:41;;;;;;;;;;;;;;;-144.98;100.00;62585.19;4934816;29;20303;-68
2023/03/08 05:50:47;;;;;;;;;;;;;;;-144.98;100.00;62585.19;4942935;29;19973;-69
2023/03/08 05:53:51;;;;;;;;;;;;;;;-144.98;100.00;62585.19;4941072;29;19973;-67
2023/03/08 05:56:55;;;;;;;;;;;;;;;-144.98;100.00;62585.19;4942505;29;20438;-67
2023/03/08 06:00:03;;;;;;;;;;;;;;;-144.98;100.00;62585.19;4954611;29;19933;-67
2023/03/08 06:03:07;;;;;;;;;;;;;;;-144.98;100.00;62585.19;4954660;29;19943;-69
2023/03/08 06:06:12;;;;;;;;;;;;;;;-144.98;100.00;62585.19;4942962;29;19925;-70
2023/03/08 06:09:17;;;;;;;;;;;;;;;-144.98;100.00;62585.19;4942880;29;20010;-68
2023/03/08 06:12:20;;;;;;;;;;;;;;;-144.98;100.00;62585.19;4954712;29;19961;-67
2023/03/08 06:15:28;;;;;;;;;;;;;;;-144.98;100.00;62585.19;4942670;29;19973;-67
2023/03/08 06:18:34;;;;;;;;;;;;;;;-144.98;100.00;62585.19;4942726;29;19941;-66
2023/03/08 06:21:38;;;;;;;;;;;;;;;-144.98;100.00;62585.19;4942585;29;19930;-66
2023/03/08 06:24:43;;;;;;;;;;;;;;;-144.98;100.00;62585.19;4954469;29;19925;-69
2023/03/08 06:32:06;;;;;;;;;;;;;;;-144.98;100.00;62585.19;4945675;29;20287;-69
2023/03/08 06:35:54;;;;;;;;;;;;;;;-144.98;100.00;62585.19;4943398;29;19964;-71
2023/03/08 06:39:03;;;;;;;;;;;;;;;-144.98;100.00;62585.19;4953899;29;19981;-70
2023/03/08 06:42:11;;;;;;;;;;;;;;;-144.98;100.00;62585.19;4941377;29;19976;-69
2023/03/08 06:45:14;;;;;;;;;;;;;;;-144.98;100.00;62585.19;4954538;29;19953;-68
2023/03/08 06:48:18;;;;;;;;;;;;;;;-144.98;100.00;62585.19;4954529;29;19929;-68
2023/03/08 06:51:21;;;;;;;;;;;;;;;-144.98;100.00;62585.19;4954497;29;19966;-69
2023/03/08 06:54:26;;;;;;;;;;;;;;;-144.98;100.00;62585.19;4942334;29;19925;-69
2023/03/08 06:57:29;;;;;;;;;;;;;;;-144.98;100.00;62585.19;4942265;29;19961;-69
2023/03/08 07:00:33;;;;;;;;;;;;;;;-144.98;100.00;62585.19;4942188;29;20044;-69
2023/03/08 07:03:37;;;;;;;;;;;;;;;-144.98;100.00;62585.19;4953548;28;20393;-69
2023/03/08 07:06:40;;;;;;;;;;;;;;;-144.98;100.00;62585.19;4957743;29;19972;-69
2023/03/08 07:09:43;;;;;;;;;;;;;;;-144.98;100.00;62585.19;4956221;29;19925;-69
2023/03/08 07:12:49;;;;;;;;;;;;;;;-144.98;100.00;62585.19;4957364;29;19946;-70
2023/03/08 07:15:52;;;;;;;;;;;;;;;-144.98;100.00;62585.19;4957241;29;20031;-69
2023/03/08 07:18:55;;;;;;;;;;;;;;;-144.98;100.00;62585.19;4957315;29;19973;-69
2023/03/08 07:21:59;;;;;;;;;;;;;;;-144.98;100.00;62585.19;4957451;28;19977;-68
2023/03/08 07:25:03;;;;;;;;;;;;;;;-144.98;100.00;62585.19;4957637;29;20186;-68
2023/03/08 07:28:06;;;;;;;;;;;;;;;-144.98;100.00;62585.19;4945899;29;20028;-68
2023/03/08 07:31:12;;;;;;;;;;;;;;;-144.98;100.00;62585.19;4957856;29;19945;-68
2023/03/08 07:34:16;;;;;;;;;;;;;;;-144.98;100.00;62585.19;4957447;29;19925;-68
2023/03/08 07:37:20;;;;;;;;;;;;;;;-144.98;100.00;62585.19;4957541;29;19926;-68
2023/03/08 07:40:23;;;;;;;;;;;;;;;-144.98;100.00;62585.19;4956942;29;20364;-69
2023/03/08 07:43:26;;;;;;;;;;;;;;;-144.98;100.00;62585.19;4945480;29;20307;-68
2023/03/08 07:46:33;;;;;;;;;;;;;;;-144.98;100.00;62585.19;4956998;29;19929;-68
2023/03/08 07:49:36;;;;;;;;;;;;;;;-144.98;100.00;62585.19;4957404;29;19926;-68
2023/03/08 07:52:39;;;;;;;;;;;;;;;-144.98;100.00;62585.19;4957072;29;20005;-68
2023/03/08 07:55:41;;;;;;;;;;;;;;;-144.98;100.00;62585.19;4957005;29;19925;-68
2023/03/08 07:58:44;;;;;;;;;;;;;;;-144.98;100.00;62585.19;4956991;29;19950;-68
2023/03/08 08:01:48;;;;;;;;;;;;;;;-144.98;100.00;62585.19;4956901;29;20405;-68
2023/03/08 08:04:51;;;;;;;;;;;;;;;-144.98;100.00;62585.19;4956769;29;19926;-68
2023/03/08 08:07:54;;;;;;;;;;;;;;;-144.98;100.00;62585.19;4956841;29;19977;-68
2023/03/08 08:10:57;;;;;;;;;;;;;;;-144.98;100.00;62585.19;4956891;29;19925;-69
2023/03/08 08:14:01;;;;;;;;;;;;;;;-144.98;100.00;62585.19;4956702;29;20035;-70
2023/03/08 08:17:03;;;;;;;;;;;;;;;-144.98;100.00;62585.19;4955559;28;19945;-69
2023/03/08 08:20:09;;;;;;;;;;;;;;;-144.98;100.00;62585.19;4956447;29;20430;-69
2023/03/08 08:23:12;;;;;;;;;;;;;;;-144.98;100.00;62585.19;4956482;28;19929;-69
2023/03/08 08:26:16;;;;;;;;;;;;;;;-144.98;100.00;62585.19;4956475;29;19996;-69
2023/03/08 08:29:19;;;;;;;;;;;;;;;-144.98;100.00;62585.19;4956639;29;20389;-70
2023/03/08 08:32:22;;;;;;;;;;;;;;;-144.98;100.00;62585.19;4954980;29;19987;-67
2023/03/08 08:35:24;;;;;;;;;;;;;;;-144.98;100.00;62585.19;4956225;29;20393;-68
2023/03/08 08:38:27;;;;;;;;;;;;;;;-144.98;100.00;62585.19;4956234;29;19972;-68
2023/03/08 08:41:31;;;;;;;;;;;;;;;-144.98;100.00;62585.19;4944570;29;19941;-68
2023/03/08 08:49:16;;;;;;;;;;;;;;;-144.98;100.00;62585.19;4936318;29;19929;-68
2023/03/08 08:52:39;;;;;;;;;;;;;;;-144.98;100.00;62585.19;4893422;29;20060;-68
2023/03/08 08:55:43;;;;;;;;;;;;;;;-144.98;100.00;62585.19;4936861;29;20463;-69
2023/03/08 08:59:00;;;;;;;;;;;;;;;-144.98;100.00;62585.19;4936871;29;20047;-68
2023/03/08 09:02:14;;;;;;;;;;;;;;;;;;;;;
2023/03/08 09:08:58;;;;;;;;;;;;;;;-144.98;100.00;62585.19;4936399;29;19978;-68
2023/03/08 09:12:02;;;;;;;;;;;;;;;-144.98;100.00;62585.19;4936820;29;19926;-68
2023/03/08 09:15:06;;;;;;;;;;;;;;;-144.98;100.00;62585.19;4936465;29;19970;-68
2023/03/08 09:18:13;;;;;;;;;;;;;;;-144.98;100.00;62585.19;4936554;29;20410;-68
2023/03/08 09:21:17;;;;;;;;;;;;;;;-144.98;100.00;62585.19;4936435;29;19927;-68
2023/03/08 09:24:20;;;;;;;;;;;;;;;-144.98;100.00;62585.19;4936223;29;19926;-70
2023/03/08 09:27:23;;;;;;;;;;;;;;;-144.98;100.00;62585.19;4935969;29;19994;-68
2023/03/08 09:30:26;;;;;;;;;;;;;;;-144.98;100.00;62585.19;4935969;29;19977;-68
2023/03/08 09:33:29;;;;;;;;;;;;;;;-144.98;100.00;62585.19;4935729;29;19977;-68
2023/03/08 09:36:33;;;;;;;;;;;;;;;-144.98;100.00;62585.19;4936001;29;19925;-68
2023/03/08 09:39:37;;;;;;;;;;;;;;;-144.98;100.00;62585.19;4935786;29;19930;-67
2023/03/08 09:42:42;;;;;;;;;;;;;;;-144.98;100.00;62585.19;4935036;29;20422;-67
2023/03/08 09:45:49;;;;;;;;;;;;;;;-144.98;100.00;62585.19;4936041;29;20009;-67
2023/03/08 09:48:54;;;;;;;;;;;;;;;-144.98;100.00;62585.19;4935997;29;19934;-67
2023/03/08 09:52:13;;;;;;;;;;;;;;;-144.98;100.00;62585.19;4936038;29;20021;-67
2023/03/08 09:55:26;;;;;;;;;;;;;;;-144.98;100.00;62585.19;4935807;29;19926;-67
2023/03/08 09:58:32;;;;;;;;;;;;;;;-144.98;100.00;62585.19;4935736;29;20541;-67
2023/03/08 10:01:44;;;;;;;;;;;;;;;-144.98;100.00;62585.19;4935716;29;20409;-67
2023/03/08 10:04:47;;;;;;;;;;;;;;;-144.98;100.00;62585.19;4935834;29;20472;-67
2023/03/08 10:07:50;;;;;;;;;;;;;;;-144.98;100.00;62585.19;4935793;29;20040;-67
2023/03/08 10:11:06;;;;;;;;;;;;;;;-144.98;100.00;62585.19;4935649;29;19937;-67
2023/03/08 10:14:17;;;;;;;;;;;;;;;-144.98;100.00;62585.19;4935924;29;20346;-67
2023/03/08 10:17:22;;;;;;;;;;;;;;;-144.98;100.00;62585.19;4935754;29;20346;-67
2023/03/08 10:20:31;;;;;;;;;;;;;;;-144.98;100.00;62585.19;4935512;29;19929;-67
2023/03/08 10:23:35;;;;;;;;;;;;;;;-144.98;100.00;62585.19;4935430;29;19941;-67
2023/03/08 10:26:39;;;;;;;;;;;;;;;-144.98;100.00;62585.19;4935571;29;19926;-67
2023/03/08 10:29:56;;;;;;;;;;;;;;;-144.98;100.00;62585.19;4935524;29;20080;-67
2023/03/08 10:33:00;;;;;;;;;;;;;;;-144.98;100.00;62585.19;4935513;29;19997;-67
2023/03/08 10:36:11;;;;;;;;;;;;;;;-144.98;100.00;62585.19;4935484;29;20022;-68
2023/03/08 10:39:15;;;;;;;;;;;;;;;-144.98;100.00;62585.19;4936215;29;19930;-67
2023/03/08 10:42:20;;;;;;;;;;;;;;;-144.98;100.00;62585.19;4939335;29;19925;-67
2023/03/08 10:45:24;;;;;;;;;;;;;;;-144.98;100.00;62585.19;4939365;29;19925;-67
2023/03/08 10:48:27;;;;;;;;;;;;;;;-144.98;100.00;62585.19;4957335;29;19945;-67
2023/03/08 10:51:30;;;;;;;;;;;;;;;-144.98;100.00;62585.19;4957817;29;19973;-67
2023/03/08 10:54:33;;;;;;;;;;;;;;;-144.98;100.00;62585.19;4958333;29;20023;-67
2023/03/08 10:57:36;;;;;;;;;;;;;;;-144.98;100.00;62585.19;4946212;29;19941;-67
2023/03/08 11:00:43;;;;;;;;;;;;;;;-144.98;100.00;62585.19;4958119;29;19977;-67
2023/03/08 11:03:56;;;;;;;;;;;;;;;-144.98;100.00;62585.19;4958009;29;20426;-67
2023/03/08 11:07:08;;;;;;;;;;;;;;;-144.98;100.00;62585.19;4958206;29;19925;-67
2023/03/08 11:10:11;;;;;;;;;;;;;;;-144.98;100.00;62585.19;4957979;29;19925;-67
2023/03/08 11:13:22;;;;;;;;;;;;;;;-144.98;100.00;62585.19;4958272;29;20291;-67
2023/03/08 11:16:28;;;;;;;;;;;;;;;-144.98;100.00;62585.19;4957581;29;19941;-67
2023/03/08 11:19:52;;;;;;;;;;;;;;;-144.98;100.00;62585.19;4945663;29;19981;-67
2023/03/08 11:23:02;;;;;;;;;;;;;;;-144.98;100.00;62585.19;4957474;28;20062;-67
2023/03/08 11:26:17;;;;;;;;;;;;;;;-144.98;100.00;62585.19;4957989;29;19964;-67
2023/03/08 11:29:24;;;;;;;;;;;;;;;-144.98;100.00;62585.19;4957506;29;19926;-67
2023/03/08 11:32:46;;;;;;;;;;;;;;;-144.98;100.00;62585.19;4957566;29;19972;-67
2023/03/08 11:36:07;;;;;;;;;;;;;;;-144.98;100.00;62585.19;4944662;29;19946;-67
2023/03/08 11:39:10;;;;;;;;;;;;;;;-144.98;100.00;62585.19;4943853;29;19929;-68
2023/03/08 11:42:16;;;;;;;;;;;;;;;-144.98;100.00;62585.19;4956478;29;20286;-67
2023/03/08 11:45:52;;;;;;;;;;;;;;;-144.98;100.00;62585.19;4907093;29;19926;-67
2023/03/08 11:48:57;;;;;;;;;;;;;;;-144.98;100.00;62585.19;4902187;29;19930;-67
2023/03/08 11:52:03;;;;;;;;;;;;;;;-144.98;100.00;62585.19;4918761;29;19925;-67
2023/03/08 11:55:06;;;;;;;;;;;;;;;-144.98;100.00;62585.19;4919239;29;19974;-67
2023/03/08 11:58:13;;;;;;;;;;;;;;;-144.98;100.00;62585.19;4918939;29;19930;-67
2023/03/08 12:01:36;;;;;;;;;;;;;;;-144.98;100.00;62585.19;4919113;29;19967;-67
2023/03/08 12:04:52;;;;;;;;;;;;;;;-144.98;100.00;62585.19;4918704;29;19926;-68
2023/03/08 12:08:01;;;;;;;;;;;;;;;-144.98;100.00;62585.19;4916780;29;19975;-67
2023/03/08 12:11:12;;;;;;;;;;;;;;;-144.98;100.00;62585.19;4916850;29;19925;-67
2023/03/08 12:15:03;;;;;;;;;;;;;;;-144.98;100.00;62585.19;4934255;29;20378;-68
2023/03/08 12:18:06;;;;;;;;;;;;;;;-144.98;100.00;62585.19;4937559;29;19930;-67
2023/03/08 12:21:10;;;;;;;;;;;;;;;-144.98;100.00;62585.19;4937375;29;19945;-67
2023/03/08 12:24:31;;;;;;;;;;;;;;;-144.98;100.00;62585.19;4937808;29;19929;-67
2023/03/08 12:27:53;;;;;;;;;;;;;;;-144.98;100.00;62585.19;4937638;29;19965;-67
2023/03/08 12:30:59;;;;;;;;;;;;;;;-144.98;100.00;62585.19;4937255;29;20308;-67
2023/03/08 12:34:10;;;;;;;;;;;;;;;-144.98;100.00;62585.19;4937148;29;19926;-67
2023/03/08 12:37:22;;;;;;;;;;;;;;;-144.98;100.00;62585.19;4937058;29;19930;-67
2023/03/08 12:40:29;;;;;;;;;;;;;;;-144.98;100.00;62585.19;4935608;29;19929;-67
2023/03/08 12:43:33;;;;;;;;;;;;;;;-144.98;100.00;62585.19;4936979;29;19969;-67
2023/03/08 12:47:06;;;;;;;;;;;;;;;-144.98;100.00;62585.19;4935497;29;19977;-67
2023/03/08 12:54:28;;;;;;;;;;;;;;;-144.98;100.00;62585.19;4935320;29;20386;-69
2023/03/08 12:57:46;;;;;;;;;;;;;;;-144.98;100.00;62585.19;4933906;29;20297;-69
2023/03/08 13:00:56;;;;;;;;;;;;;;;-144.98;100.00;62585.19;4934735;29;19929;-69
2023/03/08 13:04:00;;;;;;;;;;;;;;;-144.98;100.00;62585.19;4934703;29;19973;-69
2023/03/08 13:07:29;;;;;;;;;;;;;;;-144.98;100.00;62585.19;4936329;29;20303;-71
2023/03/08 13:10:34;;;;;;;;;;;;;;;-144.98;100.00;62585.19;4936600;29;19926;-72
2023/03/08 13:13:56;;;;;;;;;;;;;;;-144.98;100.00;62585.19;4936160;29;20287;-70
2023/03/08 13:16:59;;;;;;;;;;;;;;;-144.98;100.00;62585.19;4936503;29;20025;-70
2023/03/08 13:20:17;;;;;;;;;;;;;;;-144.98;100.00;62585.19;4924553;29;19929;-72
2023/03/08 13:23:26;;;;;;;;;;;;;;;-144.98;100.00;62585.19;4936237;29;19927;-72
2023/03/08 13:26:34;;;;;;;;;;;;;;;-144.98;100.00;62585.19;4936207;29;19941;-72
2023/03/08 13:29:41;;;;;;;;;;;;;;;-144.98;100.00;62585.19;4936327;29;19940;-71
2023/03/08 13:32:46;;;;;;;;;;;;;;;-144.98;100.00;62585.19;4936197;29;19926;-71
2023/03/08 13:36:00;;;;;;;;;;;;;;;-144.98;100.00;62585.19;4935563;29;19966;-68
2023/03/08 13:39:05;;;;;;;;;;;;;;;-144.98;100.00;62585.19;4936134;29;19945;-69
2023/03/08 13:42:10;;;;;;;;;;;;;;;-144.98;100.00;62585.19;4936110;29;19925;-72
2023/03/08 13:45:16;;;;;;;;;;;;;;;-144.98;100.00;62585.19;4936090;29;19970;-72
2023/03/08 13:48:21;;;;;;;;;;;;;;;-144.98;100.00;62585.19;4935829;29;19929;-73
2023/03/08 13:51:26;;;;;;;;;;;;;;;-144.98;100.00;62585.19;4924472;29;19926;-73
2023/03/08 13:54:36;;;;;;;;;;;;;;;-144.98;100.00;62585.19;4935801;29;20339;-72
2023/03/08 13:57:41;;;;;;;;;;;;;;;-144.98;100.00;62585.19;4935790;29;19929;-72
2023/03/08 14:00:44;;;;;;;;;;;;;;;-144.98;100.00;62585.19;4935865;29;20450;-72
2023/03/08 14:03:49;;;;;;;;;;;;;;;-144.98;100.00;62585.19;4935743;29;19925;-73
2023/03/08 14:06:56;;;;;;;;;;;;;;;-144.98;100.00;62585.19;4935003;29;20505;-73
2023/03/08 14:09:59;;;;;;;;;;;;;;;-144.98;100.00;62585.19;4935781;29;19968;-72
2023/03/08 14:13:03;;;;;;;;;;;;;;;-144.98;100.00;62585.19;4935796;29;20336;-72
2023/03/08 14:16:07;;;;;;;;;;;;;;;-144.98;100.00;62585.19;4935955;29;19926;-71
2023/03/08 14:19:20;;;;;;;;;;;;;;;-144.98;100.00;62585.19;4935481;29;20406;-72
2023/03/08 14:22:25;;;;;;;;;;;;;;;-144.98;100.00;62585.19;4935715;29;19982;-72
2023/03/08 14:25:30;;;;;;;;;;;;;;;-144.98;100.00;62585.19;4913244;29;20038;-74
2023/03/08 14:28:35;;;;;;;;;;;;;;;-144.98;100.00;62585.19;4935874;29;19978;-72
2023/03/08 14:31:38;;;;;;;;;;;;;;;-144.98;100.00;62585.19;4935785;29;19925;-73
2023/03/08 14:34:45;;;;;;;;;;;;;;;-144.98;100.00;62585.19;4935799;29;20356;-71
2023/03/08 14:37:54;;;;;;;;;;;;;;;-144.98;100.00;62585.19;4935322;29;19991;-71
2023/03/08 14:40:59;;;;;;;;;;;;;;;-144.98;100.00;62585.19;4935450;29;19930;-70
2023/03/08 14:44:17;;;;;;;;;;;;;;;-144.98;100.00;62585.19;4935247;29;20327;-70
2023/03/08 14:47:22;;;;;;;;;;;;;;;-144.98;100.00;62585.19;4935110;29;20018;-72
2023/03/08 14:50:33;;;;;;;;;;;;;;;-144.98;100.00;62585.19;4935608;29;20496;-72
2023/03/08 14:53:58;;;;;;;;;;;;;;;-144.98;100.00;62585.19;4935601;29;20009;-72
2023/03/08 14:57:20;;;;;;;;;;;;;;;-144.98;100.00;62585.19;4935673;29;19960;-72
2023/03/08 15:00:24;;;;;;;;;;;;;;;-144.98;100.00;62585.19;4935327;29;19933;-72
2023/03/08 15:03:28;;;;;;;;;;;;;;;-144.98;100.00;62585.19;4935162;29;19965;-72
2023/03/08 15:06:38;;;;;;;;;;;;;;;-144.98;100.00;62585.19;4935474;29;19929;-73
2023/03/08 15:09:41;;;;;;;;;;;;;;;-144.98;100.00;62585.19;4923330;29;19926;-71
2023/03/08 15:12:45;;;;;;;;;;;;;;;-144.98;100.00;62585.19;4923270;29;19926;-68
2023/03/08 15:15:48;;;;;;;;;;;;;;;-144.98;100.00;62585.19;4935036;29;20319;-67
2023/03/08 15:18:51;;;;;;;;;;;;;;;-144.98;100.00;62585.19;4934394;29;19930;-65
2023/03/08 15:21:54;;;;;;;;;;;;;;;-144.98;100.00;62585.19;4934394;29;19925;-65
2023/03/08 15:24:58;;;;;;;;;;;;;;;-144.98;100.00;62585.19;4935572;29;19939;-66
2023/03/08 15:28:01;;;;;;;;;;;;;;;-144.98;100.00;62585.19;4926885;29;19926;-67
2023/03/08 15:35:22;;;;;;;;;;;;;;;-144.98;100.00;62585.19;4938132;29;20414;-65
2023/03/08 15:38:25;;;;;;;;;;;;;;;-144.98;100.00;62585.19;4938155;29;19986;-65
2023/03/08 15:41:30;;;;;;;;;;;;;;;-144.98;100.00;62585.19;4938126;29;19926;-66
2023/03/08 15:44:42;;;;;;;;;;;;;;;-144.98;100.00;62585.19;4946531;29;20702;-66
2023/03/08 15:47:58;;;;;;;;;;;;;;;-144.98;100.00;62585.19;4940311;29;19930;-67
2023/03/08 15:51:02;;;;;;;;;;;;;;;-144.98;100.00;62585.19;4947154;29;19926;-66
2023/03/08 15:54:05;;;;;;;;;;;;;;;-144.98;100.00;62585.19;4944120;29;19933;-66
2023/03/08 15:57:08;;;;;;;;;;;;;;;-144.98;100.00;62585.19;4944223;29;20020;-66